createdAt,value
2023-04-20T00:01:21.542Z,2.35
2023-04-20T00:03:48.484Z,4.28
2023-04-20T00:06:15.528Z,6.47
2023-04-20T00:08:42.238Z,7.95
2023-04-20T00:11:08.882Z,4.85
2023-04-20T00:13:35.505Z,3.63
2023-04-20T00:16:02.999Z,4.20
2023-04-20T00:18:29.642Z,5.18
2023-04-20T00:20:57.271Z,4.03
2023-04-20T00:23:23.894Z,5.93
2023-04-20T00:25:51.651Z,5.47
2023-04-20T00:28:18.330Z,4.07
2023-04-20T00:30:45.145Z,6.28
2023-04-20T00:33:11.813Z,1.80
2023-04-20T00:35:38.559Z,3.05
2023-04-20T00:38:05.760Z,2.53
2023-04-20T00:40:33.405Z,5.28
2023-04-20T00:43:12.854Z,4.97
2023-04-20T00:45:39.854Z,4.75
2023-04-20T00:48:07.071Z,6.68
2023-04-20T00:50:34.750Z,4.28
2023-04-20T00:53:02.580Z,3.75
2023-04-20T00:55:30.609Z,3.60
2023-04-20T00:57:58.144Z,6.75
2023-04-20T01:00:26.110Z,2.50
2023-04-20T01:02:52.946Z,4.93
2023-04-20T01:05:20.602Z,9.57
2023-04-20T01:07:47.366Z,5.78
2023-04-20T01:10:14.840Z,5.30
2023-04-20T01:12:42.113Z,9.25
2023-04-20T01:15:10.663Z,4.35
2023-04-20T01:17:40.695Z,3.42
2023-04-20T01:20:12.320Z,4.05
2023-04-20T01:22:46.330Z,7.38
2023-04-20T01:25:13.176Z,2.63
2023-04-20T01:27:40.016Z,7.15
2023-04-20T01:30:07.589Z,2.88
2023-04-20T01:32:37.663Z,6.18
2023-04-20T01:35:05.567Z,4.45
2023-04-20T01:37:32.232Z,3.17
2023-04-20T01:40:03.773Z,3.58
2023-04-20T01:42:30.620Z,3.17
2023-04-20T01:44:57.427Z,4.72
2023-04-20T01:47:24.159Z,6.05
2023-04-20T01:49:50.848Z,5.10
2023-04-20T01:52:18.048Z,3.63
2023-04-20T01:54:44.913Z,2.97
2023-04-20T01:57:11.802Z,8.65
2023-04-20T01:59:38.482Z,5.70
2023-04-20T02:02:05.182Z,5.82
2023-04-20T02:04:32.979Z,3.53
2023-04-20T02:07:00.498Z,4.45
2023-04-20T02:09:27.186Z,5.15
2023-04-20T02:11:54.088Z,6.00
2023-04-20T02:14:20.835Z,3.15
2023-04-20T02:16:47.671Z,3.88
2023-04-20T02:19:14.393Z,6.90
2023-04-20T02:21:41.196Z,3.30
2023-04-20T02:24:08.091Z,7.03
2023-04-20T02:26:34.761Z,6.93
2023-04-20T02:29:01.404Z,4.90
2023-04-20T02:31:28.121Z,3.65
2023-04-20T02:33:54.782Z,4.72
2023-04-20T02:36:21.427Z,6.40
2023-04-20T02:38:48.219Z,3.75
2023-04-20T02:41:14.838Z,3.45
2023-04-20T02:43:41.553Z,5.80
2023-04-20T02:46:09.940Z,7.18
2023-04-20T02:48:36.720Z,8.07
2023-04-20T02:51:03.734Z,3.75
2023-04-20T02:53:35.193Z,5.40
2023-04-20T02:56:22.458Z,4.15
2023-04-20T02:58:53.811Z,6.72
2023-04-20T03:01:23.894Z,5.30
2023-04-20T03:03:58.744Z,3.78
2023-04-20T03:06:26.527Z,4.55
2023-04-20T03:08:56.334Z,3.97
2023-04-20T03:11:45.703Z,8.85
2023-04-20T03:14:19.851Z,8.82
2023-04-20T03:16:47.279Z,6.47
2023-04-20T03:19:15.716Z,5.15
2023-04-20T03:21:43.019Z,5.28
2023-04-20T03:24:09.711Z,4.18
2023-04-20T03:26:37.161Z,7.40
2023-04-20T03:29:14.474Z,3.95
2023-04-20T03:31:41.209Z,3.83
2023-04-20T03:34:09.659Z,2.33
2023-04-20T03:36:37.864Z,7.28
2023-04-20T03:39:04.623Z,5.80
2023-04-20T03:41:31.891Z,6.22
2023-04-20T03:43:58.572Z,4.05
2023-04-20T03:46:25.438Z,7.72
2023-04-20T03:48:52.169Z,4.78
2023-04-20T03:51:18.861Z,5.18
2023-04-20T03:53:45.603Z,6.97
2023-04-20T03:56:13.607Z,4.75
2023-04-20T03:58:40.483Z,5.35
2023-04-20T04:01:17.126Z,4.55
2023-04-20T04:03:47.609Z,4.22
2023-04-20T04:06:14.475Z,4.38
2023-04-20T04:08:47.670Z,4.45
2023-04-20T04:11:14.402Z,7.82
2023-04-20T04:13:41.218Z,4.18
2023-04-20T04:16:31.632Z,4.65
2023-04-20T04:18:59.150Z,4.05
2023-04-20T04:21:27.561Z,7.07
2023-04-20T04:23:59.835Z,6.72
2023-04-20T04:26:46.452Z,5.22
2023-04-20T04:29:13.383Z,6.13
2023-04-20T04:35:11.825Z,4.80
2023-04-20T04:37:39.041Z,7.85
2023-04-20T04:40:09.294Z,6.78
2023-04-20T04:42:36.585Z,7.57
2023-04-20T04:45:05.942Z,5.05
2023-04-20T04:47:35.842Z,5.07
2023-04-20T04:50:04.551Z,5.10
2023-04-20T04:52:32.779Z,5.10
2023-04-20T04:54:59.562Z,6.45
2023-04-20T04:57:44.745Z,7.85
2023-04-20T05:00:24.425Z,6.95
2023-04-20T05:03:10.900Z,4.25
2023-04-20T05:05:38.042Z,3.90
2023-04-20T05:08:04.756Z,5.35
2023-04-20T05:10:50.366Z,5.88
2023-04-20T05:13:17.108Z,5.35
2023-04-20T05:15:44.028Z,5.28
2023-04-20T05:18:11.008Z,7.38
2023-04-20T05:20:37.898Z,4.35
2023-04-20T05:23:04.583Z,4.13
2023-04-20T05:25:32.585Z,6.25
2023-04-20T05:27:59.435Z,4.47
2023-04-20T05:30:26.219Z,7.10
2023-04-20T05:32:53.005Z,4.85
2023-04-20T05:35:20.380Z,4.85
2023-04-20T05:37:47.796Z,4.93
2023-04-20T05:40:15.653Z,6.78
2023-04-20T05:42:42.461Z,4.90
2023-04-20T05:45:09.873Z,7.22
2023-04-20T05:47:36.661Z,4.72
2023-04-20T05:50:03.807Z,8.63
2023-04-20T05:52:30.711Z,6.00
2023-04-20T05:54:57.325Z,4.75
2023-04-20T05:57:24.542Z,4.10
2023-04-20T05:59:51.485Z,4.38
2023-04-20T06:02:18.334Z,4.63
2023-04-20T06:04:45.523Z,6.57
2023-04-20T06:07:12.391Z,6.43
2023-04-20T06:09:39.057Z,6.82
2023-04-20T06:12:05.904Z,5.85
2023-04-20T06:14:32.553Z,4.38
2023-04-20T06:16:59.210Z,4.10
2023-04-20T06:19:26.267Z,5.20
2023-04-20T06:21:52.999Z,5.28
2023-04-20T06:24:19.653Z,4.20
2023-04-20T06:26:46.257Z,5.13
2023-04-20T06:29:12.947Z,7.10
2023-04-20T06:31:39.754Z,5.00
2023-04-20T06:34:06.494Z,5.07
2023-04-20T06:36:33.491Z,6.40
2023-04-20T06:39:00.370Z,5.03
2023-04-20T06:41:27.165Z,6.55
2023-04-20T06:43:53.833Z,6.80
2023-04-20T06:46:20.572Z,6.25
2023-04-20T06:48:47.339Z,5.70
2023-04-20T06:51:14.189Z,10.38
2023-04-20T06:53:40.969Z,5.88
2023-04-20T06:56:07.989Z,5.97
2023-04-20T06:58:34.688Z,5.32
2023-04-20T07:01:02.215Z,6.80
2023-04-20T07:03:29.081Z,5.25
2023-04-20T07:05:55.965Z,7.55
2023-04-20T07:08:23.033Z,5.05
2023-04-20T07:10:49.719Z,5.20
2023-04-20T07:13:16.623Z,5.53
2023-04-20T07:15:45.778Z,4.80
2023-04-20T07:18:12.714Z,9.45
2023-04-20T07:20:39.551Z,6.05
2023-04-20T07:23:06.631Z,6.50
2023-04-20T07:25:33.457Z,6.25
2023-04-20T07:28:00.237Z,8.63
2023-04-20T07:30:27.181Z,6.18
2023-04-20T07:32:53.941Z,8.25
2023-04-20T07:35:20.841Z,8.40
2023-04-20T07:37:47.620Z,6.18
2023-04-20T07:40:14.794Z,10.45
2023-04-20T07:42:41.529Z,5.20
2023-04-20T07:45:09.167Z,7.78
2023-04-20T07:47:36.346Z,7.10
2023-04-20T07:50:07.190Z,7.88
2023-04-20T07:52:34.097Z,6.72
2023-04-20T07:55:00.738Z,6.85
2023-04-20T07:57:28.140Z,7.15
2023-04-20T07:59:54.942Z,5.80
2023-04-20T08:02:21.623Z,7.50
2023-04-20T08:04:49.709Z,8.18
2023-04-20T08:07:16.764Z,10.60
2023-04-20T08:09:43.465Z,8.32
2023-04-20T08:12:10.103Z,7.40
2023-04-20T08:14:38.254Z,10.05
2023-04-20T08:17:05.098Z,6.53
2023-04-20T08:19:31.881Z,7.65
2023-04-20T08:21:59.713Z,7.15
2023-04-20T08:24:27.257Z,11.00
2023-04-20T08:26:54.018Z,5.20
2023-04-20T08:29:20.884Z,8.50
2023-04-20T08:31:49.311Z,6.68
2023-04-20T08:34:19.082Z,7.00
2023-04-20T08:36:46.360Z,8.02
2023-04-20T08:39:19.334Z,9.32
2023-04-20T08:41:46.746Z,6.00
2023-04-20T08:44:13.528Z,10.13
2023-04-20T08:46:46.323Z,7.63
2023-04-20T08:49:18.208Z,7.38
2023-04-20T08:51:46.021Z,9.23
2023-04-20T08:54:13.380Z,4.82
2023-04-20T08:56:46.384Z,6.15
2023-04-20T08:59:14.549Z,10.18
2023-04-20T09:01:44.999Z,6.95
2023-04-20T09:04:20.352Z,14.85
2023-04-20T09:06:52.135Z,11.25
2023-04-20T09:09:20.240Z,5.75
2023-04-20T09:11:47.541Z,9.43
2023-04-20T09:14:16.979Z,9.60
2023-04-20T09:16:53.874Z,6.93
2023-04-20T09:19:24.777Z,7.00
2023-04-20T09:21:54.671Z,9.32
2023-04-20T09:24:23.710Z,7.95
2023-04-20T09:26:50.551Z,6.15
2023-04-20T09:29:22.160Z,7.57
2023-04-20T09:31:49.484Z,8.05
2023-04-20T09:34:16.926Z,8.10
2023-04-20T09:36:46.257Z,8.00
2023-04-20T09:39:14.106Z,6.75
2023-04-20T09:41:42.003Z,9.77
2023-04-20T09:44:09.998Z,8.63
2023-04-20T09:46:40.521Z,7.38
2023-04-20T09:49:12.358Z,8.15
2023-04-20T09:51:46.881Z,6.00
2023-04-20T09:54:14.841Z,7.57
2023-04-20T09:56:42.017Z,6.43
2023-04-20T09:59:08.687Z,6.97
2023-04-20T10:01:37.886Z,6.70
2023-04-20T10:04:09.399Z,6.20
2023-04-20T10:06:37.271Z,11.32
2023-04-20T10:09:08.785Z,8.10
2023-04-20T10:11:45.133Z,9.63
2023-04-20T10:14:23.787Z,7.07
2023-04-20T10:17:08.644Z,6.93
2023-04-20T10:19:45.998Z,9.80
2023-04-20T10:22:24.986Z,6.53
2023-04-20T10:24:51.706Z,6.00
2023-04-20T10:27:19.603Z,7.32
2023-04-20T10:29:46.782Z,5.25
2023-04-20T10:32:28.227Z,8.27
2023-04-20T10:35:03.230Z,6.05
2023-04-20T10:37:30.489Z,6.47
2023-04-20T10:39:57.280Z,6.75
2023-04-20T10:42:24.191Z,5.63
2023-04-20T10:44:54.638Z,5.38
2023-04-20T10:47:32.353Z,6.03
2023-04-20T10:50:12.742Z,6.32
2023-04-20T10:52:42.008Z,5.28
2023-04-20T10:55:26.134Z,7.13
2023-04-20T10:57:53.375Z,8.10
2023-04-20T11:00:28.068Z,6.10
2023-04-20T11:02:57.132Z,6.63
2023-04-20T11:05:27.249Z,6.93
2023-04-20T11:07:53.890Z,5.63
2023-04-20T11:10:22.695Z,5.35
2023-04-20T11:12:49.655Z,5.85
2023-04-20T11:15:16.396Z,7.75
2023-04-20T11:17:43.133Z,5.93
2023-04-20T11:20:16.181Z,6.13
2023-04-20T11:22:43.735Z,5.88
2023-04-20T11:25:12.330Z,7.25
2023-04-20T11:27:39.680Z,5.68
2023-04-20T11:30:07.760Z,7.82
2023-04-20T11:32:36.050Z,5.00
2023-04-20T11:35:07.698Z,6.30
2023-04-20T11:37:48.097Z,6.10
2023-04-20T11:40:15.278Z,5.75
2023-04-20T11:42:42.221Z,6.40
2023-04-20T11:45:09.491Z,6.13
2023-04-20T11:47:36.280Z,5.57
2023-04-20T11:50:03.292Z,5.70
2023-04-20T11:52:30.174Z,4.93
2023-04-20T11:54:56.832Z,4.68
2023-04-20T11:57:25.510Z,5.22
2023-04-20T11:59:52.265Z,7.65
2023-04-20T12:02:19.027Z,5.68
2023-04-20T12:04:46.626Z,5.45
2023-04-20T12:07:13.580Z,5.55
2023-04-20T12:09:41.152Z,5.07
2023-04-20T12:12:10.814Z,5.28
2023-04-20T12:14:37.498Z,5.10
2023-04-20T12:17:05.052Z,5.03
2023-04-20T12:19:32.103Z,5.70
2023-04-20T12:21:58.858Z,5.05
2023-04-20T12:24:25.695Z,6.22
2023-04-20T12:26:52.362Z,6.82
2023-04-20T12:29:19.237Z,4.80
2023-04-20T12:31:46.319Z,3.72
2023-04-20T12:34:13.046Z,4.30
2023-04-20T12:36:39.786Z,4.22
2023-04-20T12:39:06.514Z,4.18
2023-04-20T12:41:34.308Z,4.70
2023-04-20T12:44:15.815Z,4.63
2023-04-20T12:46:42.696Z,4.28
2023-04-20T12:49:09.706Z,4.07
2023-04-20T12:51:36.332Z,5.00
2023-04-20T12:54:03.048Z,6.90
2023-04-20T12:56:29.695Z,4.00
2023-04-20T12:58:56.430Z,4.15
2023-04-20T13:01:23.346Z,5.38
2023-04-20T13:03:52.030Z,4.00
2023-04-20T13:06:18.839Z,4.60
2023-04-20T13:08:45.639Z,4.95
2023-04-20T13:11:15.225Z,4.85
2023-04-20T13:13:42.286Z,5.55
2023-04-20T13:16:09.200Z,4.47
2023-04-20T13:18:36.162Z,9.00
2023-04-20T13:21:02.896Z,4.05
2023-04-20T13:23:29.536Z,4.15
2023-04-20T13:25:59.023Z,5.28
2023-04-20T13:28:25.955Z,4.70
2023-04-20T13:30:55.356Z,4.40
2023-04-20T13:33:22.050Z,5.47
2023-04-20T13:35:48.821Z,4.70
2023-04-20T13:38:15.802Z,7.93
2023-04-20T13:40:44.084Z,5.18
2023-04-20T13:43:10.794Z,4.72
2023-04-20T13:45:37.530Z,4.97
2023-04-20T13:48:04.509Z,5.25
2023-04-20T13:50:31.285Z,4.85
2023-04-20T13:52:58.022Z,6.20
2023-04-20T13:55:26.381Z,4.80
2023-04-20T13:57:53.789Z,5.15
2023-04-20T14:00:21.675Z,5.63
2023-04-20T14:02:48.433Z,7.40
2023-04-20T14:05:15.345Z,5.00
2023-04-20T14:07:42.010Z,5.63
2023-04-20T14:10:09.277Z,5.38
2023-04-20T14:12:35.995Z,7.38
2023-04-20T14:15:02.947Z,6.88
2023-04-20T14:17:29.626Z,4.60
2023-04-20T14:19:56.759Z,5.25
2023-04-20T14:22:23.392Z,3.50
2023-04-20T14:24:50.098Z,4.35
2023-04-20T14:27:16.816Z,7.50
2023-04-20T14:29:43.489Z,6.18
2023-04-20T14:32:10.184Z,4.60
2023-04-20T14:34:36.928Z,6.10
2023-04-20T14:37:03.662Z,5.45
2023-04-20T14:39:30.411Z,4.95
2023-04-20T14:41:57.443Z,6.15
2023-04-20T14:44:24.125Z,5.30
2023-04-20T14:46:50.940Z,5.18
2023-04-20T14:49:17.662Z,5.47
2023-04-20T14:51:44.348Z,7.03
2023-04-20T14:54:11.011Z,8.48
2023-04-20T14:56:37.825Z,8.80
2023-04-20T14:59:04.598Z,5.22
2023-04-20T15:01:31.347Z,7.68
2023-04-20T15:03:58.256Z,6.00
2023-04-20T15:06:25.443Z,6.70
2023-04-20T15:08:56.275Z,5.45
2023-04-20T15:11:23.065Z,5.53
2023-04-20T15:13:51.078Z,4.18
2023-04-20T15:16:17.973Z,5.03
2023-04-20T15:18:44.713Z,5.75
2023-04-20T15:21:11.558Z,4.97
2023-04-20T15:23:38.381Z,4.38
2023-04-20T15:26:06.419Z,5.85
2023-04-20T15:28:33.014Z,4.65
2023-04-20T15:30:59.675Z,4.88
2023-04-20T15:33:26.684Z,5.57
2023-04-20T15:35:53.367Z,5.97
2023-04-20T15:38:20.162Z,4.25
2023-04-20T15:40:46.916Z,5.43
2023-04-20T15:43:13.569Z,9.35
2023-04-20T15:45:41.223Z,4.45
2023-04-20T15:48:09.114Z,5.28
2023-04-20T15:50:36.156Z,5.03
2023-04-20T15:53:02.957Z,4.35
2023-04-20T15:55:34.246Z,5.65
2023-04-20T15:58:01.128Z,5.57
2023-04-20T16:00:27.833Z,4.28
2023-04-20T16:02:54.837Z,4.47
2023-04-20T16:05:21.860Z,5.80
2023-04-20T16:07:48.550Z,4.93
2023-04-20T16:10:15.388Z,5.00
2023-04-20T16:12:42.034Z,4.75
2023-04-20T16:15:09.383Z,4.25
2023-04-20T16:17:36.046Z,6.30
2023-04-20T16:20:02.768Z,5.43
2023-04-20T16:22:29.577Z,4.07
2023-04-20T16:24:56.570Z,7.70
2023-04-20T16:27:23.260Z,5.38
2023-04-20T16:29:49.936Z,6.20
2023-04-20T16:32:16.636Z,5.57
2023-04-20T16:34:43.421Z,6.03
2023-04-20T16:37:10.090Z,6.30
2023-04-20T16:39:37.227Z,4.90
2023-04-20T16:42:04.045Z,5.15
2023-04-20T16:44:30.742Z,4.22
2023-04-20T16:46:57.392Z,5.63
2023-04-20T16:49:24.089Z,4.60
2023-04-20T16:51:50.849Z,4.10
2023-04-20T16:54:17.851Z,4.20
2023-04-20T16:56:44.740Z,5.53
2023-04-20T16:59:11.455Z,6.35
2023-04-20T17:01:38.239Z,5.45
2023-04-20T17:04:05.079Z,4.88
2023-04-20T17:06:31.973Z,6.25
2023-04-20T17:09:05.338Z,6.18
2023-04-20T17:11:35.774Z,5.30
2023-04-20T17:14:03.488Z,6.03
2023-04-20T17:16:30.339Z,6.85
2023-04-20T17:18:57.287Z,8.48
2023-04-20T17:21:23.964Z,6.82
2023-04-20T17:23:50.676Z,6.50
2023-04-20T17:26:17.364Z,9.05
2023-04-20T17:28:44.034Z,7.97
2023-04-20T17:31:10.875Z,10.30
2023-04-20T17:33:37.638Z,7.10
2023-04-20T17:36:04.587Z,7.32
2023-04-20T17:38:36.322Z,8.55
2023-04-20T17:41:03.522Z,6.43
2023-04-20T17:43:30.785Z,8.48
2023-04-20T17:46:00.556Z,15.20
2023-04-20T17:48:27.303Z,37.55
2023-04-20T17:50:54.097Z,24.77
2023-04-20T17:53:20.878Z,14.73
2023-04-20T17:55:47.532Z,21.40
2023-04-20T17:58:14.338Z,11.30
2023-04-20T18:00:41.024Z,8.77
2023-04-20T18:03:07.851Z,8.57
2023-04-20T18:05:34.744Z,8.00
2023-04-20T18:08:01.895Z,8.60
2023-04-20T18:10:28.652Z,8.27
2023-04-20T18:12:55.421Z,8.25
2023-04-20T18:15:22.175Z,9.00
2023-04-20T18:17:49.382Z,7.85
2023-04-20T18:20:16.224Z,8.75
2023-04-20T18:22:42.899Z,8.30
2023-04-20T18:25:09.834Z,8.63
2023-04-20T18:27:36.995Z,8.63
2023-04-20T18:30:04.041Z,8.65
2023-04-20T18:32:31.300Z,9.57
2023-04-20T18:34:59.140Z,8.50
2023-04-20T18:37:25.999Z,12.25
2023-04-20T18:39:52.665Z,9.98
2023-04-20T18:42:19.428Z,7.70
2023-04-20T18:44:46.343Z,10.35
2023-04-20T18:47:13.189Z,10.80
2023-04-20T18:49:39.876Z,7.95
2023-04-20T18:52:06.656Z,10.75
2023-04-20T18:54:33.402Z,11.80
2023-04-20T18:57:00.011Z,9.32
2023-04-20T18:59:26.694Z,10.00
2023-04-20T19:01:53.665Z,9.30
2023-04-20T19:04:21.013Z,9.68
2023-04-20T19:06:48.188Z,10.93
2023-04-20T19:09:15.053Z,12.38
2023-04-20T19:11:42.158Z,12.13
2023-04-20T19:14:08.847Z,13.48
2023-04-20T19:16:35.540Z,11.15
2023-04-20T19:19:03.835Z,12.20
2023-04-20T19:21:32.147Z,11.18
2023-04-20T19:23:58.851Z,12.65
2023-04-20T19:26:25.513Z,13.20
2023-04-20T19:28:52.271Z,11.57
2023-04-20T19:31:19.413Z,11.77
2023-04-20T19:33:46.129Z,12.10
2023-04-20T19:36:12.804Z,12.18
2023-04-20T19:38:39.476Z,11.20
2023-04-20T19:41:06.418Z,9.85
2023-04-20T19:43:33.122Z,14.23
2023-04-20T19:46:00.068Z,15.10
2023-04-20T19:48:26.828Z,11.18
2023-04-20T19:50:56.472Z,15.73
2023-04-20T19:53:24.992Z,12.70
2023-04-20T19:55:51.704Z,15.60
2023-04-20T19:58:19.459Z,15.90
2023-04-20T20:00:46.345Z,14.63
2023-04-20T20:03:15.547Z,12.27
2023-04-20T20:05:43.285Z,14.43
2023-04-20T20:08:10.129Z,16.35
2023-04-20T20:10:36.857Z,14.18
2023-04-20T20:13:03.707Z,13.75
2023-04-20T20:15:30.616Z,14.55
2023-04-20T20:17:59.342Z,14.77
2023-04-20T20:20:32.344Z,14.25
2023-04-20T20:22:59.802Z,13.07
2023-04-20T20:25:26.899Z,18.60
2023-04-20T20:27:53.743Z,19.92
2023-04-20T20:30:20.621Z,15.88
2023-04-20T20:32:47.294Z,15.93
2023-04-20T20:35:14.008Z,17.08
2023-04-20T20:37:41.606Z,17.48
2023-04-20T20:40:14.878Z,16.65
2023-04-20T20:42:42.494Z,18.63
2023-04-20T20:45:12.340Z,17.55
2023-04-20T20:47:40.817Z,16.77
2023-04-20T20:50:08.509Z,16.40
2023-04-20T20:52:35.248Z,18.00
2023-04-20T20:55:02.216Z,18.05
2023-04-20T20:57:28.878Z,15.00
2023-04-20T20:59:55.592Z,20.27
2023-04-20T21:02:22.800Z,20.95
2023-04-20T21:04:49.684Z,20.50
2023-04-20T21:07:16.656Z,20.20
2023-04-20T21:09:43.409Z,19.08
2023-04-20T21:12:10.158Z,20.23
2023-04-20T21:14:39.739Z,20.40
2023-04-20T21:17:06.482Z,23.63
2023-04-20T21:19:33.198Z,19.80
2023-04-20T21:21:59.841Z,17.52
2023-04-20T21:24:26.643Z,23.02
2023-04-20T21:26:53.466Z,17.75
2023-04-20T21:29:20.466Z,21.30
2023-04-20T21:31:47.420Z,18.35
2023-04-20T21:34:14.236Z,19.50
2023-04-20T21:36:41.068Z,19.60
2023-04-20T21:39:07.831Z,23.92
2023-04-20T21:41:34.589Z,22.50
2023-04-20T21:44:02.470Z,21.05
2023-04-20T21:46:29.547Z,21.70
2023-04-20T21:48:56.393Z,18.88
2023-04-20T21:51:23.066Z,23.25
2023-04-20T21:53:49.698Z,20.17
2023-04-20T21:56:16.362Z,18.10
2023-04-20T21:58:43.081Z,21.08
2023-04-20T22:01:09.827Z,22.15
2023-04-20T22:03:37.665Z,24.50
2023-04-20T22:06:05.023Z,19.55
2023-04-20T22:08:31.915Z,25.15
2023-04-20T22:10:58.558Z,21.63
2023-04-20T22:13:25.351Z,22.60
2023-04-20T22:15:52.502Z,22.02
2023-04-20T22:18:19.480Z,24.13
2023-04-20T22:20:46.184Z,25.90
2023-04-20T22:23:12.887Z,28.65
2023-04-20T22:25:40.518Z,24.52
2023-04-20T22:28:07.251Z,21.88
2023-04-20T22:30:34.234Z,24.88
2023-04-20T22:33:01.341Z,23.05
2023-04-20T22:35:28.187Z,25.73
2023-04-20T22:37:55.101Z,23.27
2023-04-20T22:40:22.103Z,26.77
2023-04-20T22:42:48.844Z,23.70
2023-04-20T22:45:19.387Z,24.65
2023-04-20T22:47:46.979Z,22.50
2023-04-20T22:50:15.002Z,23.35
2023-04-20T22:52:42.138Z,25.00
2023-04-20T22:55:10.175Z,21.75
2023-04-20T22:57:37.301Z,20.63
2023-04-20T23:00:10.605Z,22.10
2023-04-20T23:02:37.818Z,22.92
2023-04-20T23:05:05.558Z,20.25
2023-04-20T23:07:33.118Z,18.58
2023-04-20T23:10:00.110Z,20.92
2023-04-20T23:12:29.269Z,21.50
2023-04-20T23:14:56.560Z,17.67
2023-04-20T23:17:23.374Z,24.10
2023-04-20T23:19:50.764Z,18.10
2023-04-20T23:22:17.555Z,19.13
2023-04-20T23:24:44.377Z,17.65
2023-04-20T23:27:11.036Z,19.80
2023-04-20T23:29:37.710Z,18.35
2023-04-20T23:32:04.739Z,19.55
2023-04-20T23:34:31.463Z,20.42
2023-04-20T23:36:58.304Z,18.25
2023-04-20T23:39:25.171Z,15.65
2023-04-20T23:41:51.822Z,15.70
2023-04-20T23:44:18.497Z,15.45
2023-04-20T23:46:45.307Z,16.95
2023-04-20T23:49:11.947Z,19.27
2023-04-20T23:51:38.654Z,17.67
2023-04-20T23:54:05.582Z,18.00
2023-04-20T23:56:32.284Z,16.00
2023-04-20T23:58:59.407Z,19.60
